sensor_id;sensor_type;location;lat;lon;timestamp;pressure;altitude;pressure_sealevel;temperature;humidity
28701;BME280;15877;52.344;16.790;2024-02-15T00:01:03;100979.85;;;10.17;96.92
28701;BME280;15877;52.344;16.790;2024-02-15T00:03:43;100963.52;;;10.12;96.63
28701;BME280;15877;52.344;16.790;2024-02-15T00:06:15;100975.95;;;10.18;96.69
28701;BME280;15877;52.344;16.790;2024-02-15T00:08:48;100980.31;;;10.19;96.89
28701;BME280;15877;52.344;16.790;2024-02-15T00:11:21;100981.62;;;10.20;96.93
28701;BME280;15877;52.344;16.790;2024-02-15T00:13:53;100981.20;;;10.21;96.62
28701;BME280;15877;52.344;16.790;2024-02-15T00:16:28;100981.32;;;10.20;96.64
28701;BME280;15877;52.344;16.790;2024-02-15T00:19:02;100981.89;;;10.21;96.29
28701;BME280;15877;52.344;16.790;2024-02-15T00:21:42;100983.48;;;10.21;96.25
28701;BME280;15877;52.344;16.790;2024-02-15T00:24:14;100981.27;;;10.21;96.35
28701;BME280;15877;52.344;16.790;2024-02-15T00:26:47;100981.38;;;10.21;96.13
28701;BME280;15877;52.344;16.790;2024-02-15T00:29:19;100983.65;;;10.21;96.21
28701;BME280;15877;52.344;16.790;2024-02-15T00:31:51;100981.48;;;10.25;96.00
28701;BME280;15877;52.344;16.790;2024-02-15T00:34:24;100981.91;;;10.24;95.86
28701;BME280;15877;52.344;16.790;2024-02-15T00:36:58;100979.35;;;10.23;95.88
28701;BME280;15877;52.344;16.790;2024-02-15T00:39:42;100980.73;;;10.27;95.56
28701;BME280;15877;52.344;16.790;2024-02-15T00:42:14;100979.66;;;10.25;95.50
28701;BME280;15877;52.344;16.790;2024-02-15T00:44:47;100978.52;;;10.27;95.23
28701;BME280;15877;52.344;16.790;2024-02-15T00:47:19;100978.03;;;10.24;95.55
28701;BME280;15877;52.344;16.790;2024-02-15T00:49:51;100976.87;;;10.22;95.56
28701;BME280;15877;52.344;16.790;2024-02-15T00:52:24;100980.25;;;10.22;96.08
28701;BME280;15877;52.344;16.790;2024-02-15T00:54:56;100976.70;;;10.24;96.06
28701;BME280;15877;52.344;16.790;2024-02-15T00:57:28;100977.73;;;10.27;95.53
28701;BME280;15877;52.344;16.790;2024-02-15T01:00:01;100973.32;;;10.25;95.50
28701;BME280;15877;52.344;16.790;2024-02-15T01:02:34;100974.49;;;10.25;95.50
28701;BME280;15877;52.344;16.790;2024-02-15T01:05:08;100973.36;;;10.24;95.30
28701;BME280;15877;52.344;16.790;2024-02-15T01:07:41;100945.91;;;10.05;95.35
28701;BME280;15877;52.344;16.790;2024-02-15T01:10:13;100967.45;;;10.21;95.67
28701;BME280;15877;52.344;16.790;2024-02-15T01:12:46;100967.30;;;10.21;95.80
28701;BME280;15877;52.344;16.790;2024-02-15T01:15:19;100968.95;;;10.23;95.57
28701;BME280;15877;52.344;16.790;2024-02-15T01:17:52;100966.15;;;10.22;95.53
28701;BME280;15877;52.344;16.790;2024-02-15T01:20:24;100968.97;;;10.21;95.66
28701;BME280;15877;52.344;16.790;2024-02-15T01:22:57;100966.54;;;10.24;95.38
28701;BME280;15877;52.344;16.790;2024-02-15T01:25:29;100964.39;;;10.24;95.32
28701;BME280;15877;52.344;16.790;2024-02-15T01:28:02;100962.76;;;10.25;95.21
28701;BME280;15877;52.344;16.790;2024-02-15T01:30:34;100963.48;;;10.23;95.51
28701;BME280;15877;52.344;16.790;2024-02-15T01:33:06;100968.05;;;10.22;95.65
28701;BME280;15877;52.344;16.790;2024-02-15T01:35:39;100968.36;;;10.24;95.58
28701;BME280;15877;52.344;16.790;2024-02-15T01:38:11;100953.04;;;10.21;95.02
28701;BME280;15877;52.344;16.790;2024-02-15T01:40:43;100961.85;;;10.29;95.11
28701;BME280;15877;52.344;16.790;2024-02-15T01:43:15;100957.20;;;10.30;94.96
28701;BME280;15877;52.344;16.790;2024-02-15T01:45:47;100955.53;;;10.30;94.88
28701;BME280;15877;52.344;16.790;2024-02-15T01:48:19;100955.77;;;10.28;95.26
28701;BME280;15877;52.344;16.790;2024-02-15T01:50:52;100950.25;;;10.29;95.26
28701;BME280;15877;52.344;16.790;2024-02-15T01:53:25;100951.94;;;10.29;94.96
28701;BME280;15877;52.344;16.790;2024-02-15T01:55:58;100935.13;;;10.22;94.86
28701;BME280;15877;52.344;16.790;2024-02-15T01:58:30;100948.94;;;10.25;95.34
28701;BME280;15877;52.344;16.790;2024-02-15T02:01:05;100941.36;;;10.26;95.47
28701;BME280;15877;52.344;16.790;2024-02-15T02:03:38;100945.63;;;10.26;95.42
28701;BME280;15877;52.344;16.790;2024-02-15T02:06:11;100932.09;;;10.21;95.20
28701;BME280;15877;52.344;16.790;2024-02-15T02:08:44;100940.77;;;10.27;95.41
28701;BME280;15877;52.344;16.790;2024-02-15T02:11:16;100936.27;;;10.26;95.38
28701;BME280;15877;52.344;16.790;2024-02-15T02:13:49;100923.31;;;10.17;95.51
28701;BME280;15877;52.344;16.790;2024-02-15T02:16:29;100935.91;;;10.29;95.40
28701;BME280;15877;52.344;16.790;2024-02-15T02:19:02;100935.86;;;10.30;95.22
28701;BME280;15877;52.344;16.790;2024-02-15T02:21:40;100936.45;;;10.31;95.28
28701;BME280;15877;52.344;16.790;2024-02-15T02:24:14;100936.31;;;10.32;95.24
28701;BME280;15877;52.344;16.790;2024-02-15T02:26:51;100931.55;;;10.32;95.29
28701;BME280;15877;52.344;16.790;2024-02-15T02:29:24;100934.00;;;10.34;95.17
28701;BME280;15877;52.344;16.790;2024-02-15T02:31:59;100930.39;;;10.35;95.21
28701;BME280;15877;52.344;16.790;2024-02-15T02:34:31;100928.06;;;10.29;95.53
28701;BME280;15877;52.344;16.790;2024-02-15T02:37:04;100930.37;;;10.32;95.61
28701;BME280;15877;52.344;16.790;2024-02-15T02:39:38;100930.60;;;10.32;95.63
28701;BME280;15877;52.344;16.790;2024-02-15T02:42:11;100929.59;;;10.32;95.55
28701;BME280;15877;52.344;16.790;2024-02-15T02:44:43;100934.29;;;10.30;95.71
28701;BME280;15877;52.344;16.790;2024-02-15T02:47:16;100936.92;;;10.33;95.64
28701;BME280;15877;52.344;16.790;2024-02-15T02:49:48;100934.36;;;10.36;95.49
28701;BME280;15877;52.344;16.790;2024-02-15T02:52:21;100933.48;;;10.35;95.41
28701;BME280;15877;52.344;16.790;2024-02-15T02:54:53;100930.87;;;10.33;95.75
28701;BME280;15877;52.344;16.790;2024-02-15T02:57:25;100931.08;;;10.32;95.71
28701;BME280;15877;52.344;16.790;2024-02-15T02:59:57;100930.73;;;10.31;95.96
28701;BME280;15877;52.344;16.790;2024-02-15T03:02:31;100931.36;;;10.33;95.90
28701;BME280;15877;52.344;16.790;2024-02-15T03:05:05;100929.45;;;10.34;95.98
28701;BME280;15877;52.344;16.790;2024-02-15T03:07:40;100932.63;;;10.38;95.47
28701;BME280;15877;52.344;16.790;2024-02-15T03:10:12;100932.31;;;10.39;95.24
28701;BME280;15877;52.344;16.790;2024-02-15T03:12:46;100930.47;;;10.38;95.21
28701;BME280;15877;52.344;16.790;2024-02-15T03:15:20;100926.36;;;10.33;95.28
28701;BME280;15877;52.344;16.790;2024-02-15T03:17:53;100933.08;;;10.38;95.39
28701;BME280;15877;52.344;16.790;2024-02-15T03:20:25;100935.09;;;10.39;95.36
28701;BME280;15877;52.344;16.790;2024-02-15T03:22:58;100934.95;;;10.42;95.09
28701;BME280;15877;52.344;16.790;2024-02-15T03:25:30;100936.34;;;10.41;95.19
28701;BME280;15877;52.344;16.790;2024-02-15T03:28:05;100932.33;;;10.39;95.13
28701;BME280;15877;52.344;16.790;2024-02-15T03:30:38;100932.55;;;10.31;95.83
28701;BME280;15877;52.344;16.790;2024-02-15T03:33:10;100934.54;;;10.39;95.55
28701;BME280;15877;52.344;16.790;2024-02-15T03:35:44;100936.23;;;10.40;95.28
28701;BME280;15877;52.344;16.790;2024-02-15T03:38:16;100938.83;;;10.42;95.16
28701;BME280;15877;52.344;16.790;2024-02-15T03:40:48;100939.65;;;10.42;95.06
28701;BME280;15877;52.344;16.790;2024-02-15T03:43:21;100938.63;;;10.45;94.83
28701;BME280;15877;52.344;16.790;2024-02-15T03:45:54;100942.93;;;10.43;94.79
28701;BME280;15877;52.344;16.790;2024-02-15T03:48:26;100943.00;;;10.41;95.28
28701;BME280;15877;52.344;16.790;2024-02-15T03:50:58;100944.45;;;10.41;95.51
28701;BME280;15877;52.344;16.790;2024-02-15T03:53:32;100949.38;;;10.39;95.63
28701;BME280;15877;52.344;16.790;2024-02-15T03:56:05;100950.17;;;10.42;95.69
28701;BME280;15877;52.344;16.790;2024-02-15T03:58:39;100948.72;;;10.43;95.39
28701;BME280;15877;52.344;16.790;2024-02-15T04:01:11;100943.39;;;10.45;95.31
28701;BME280;15877;52.344;16.790;2024-02-15T04:03:44;100945.65;;;10.47;95.15
28701;BME280;15877;52.344;16.790;2024-02-15T04:06:18;100943.94;;;10.47;95.26
28701;BME280;15877;52.344;16.790;2024-02-15T04:08:51;100945.11;;;10.44;95.45
28701;BME280;15877;52.344;16.790;2024-02-15T04:11:24;100943.54;;;10.45;95.69
28701;BME280;15877;52.344;16.790;2024-02-15T04:13:56;100940.64;;;10.46;95.60
28701;BME280;15877;52.344;16.790;2024-02-15T04:16:29;100940.83;;;10.44;95.63
28701;BME280;15877;52.344;16.790;2024-02-15T04:19:04;100941.20;;;10.44;95.86
28701;BME280;15877;52.344;16.790;2024-02-15T04:21:36;100941.36;;;10.44;95.83
28701;BME280;15877;52.344;16.790;2024-02-15T04:24:10;100939.77;;;10.44;95.73
28701;BME280;15877;52.344;16.790;2024-02-15T04:26:43;100935.32;;;10.43;96.01
28701;BME280;15877;52.344;16.790;2024-02-15T04:29:17;100938.14;;;10.45;96.14
28701;BME280;15877;52.344;16.790;2024-02-15T04:31:51;100939.20;;;10.43;96.19
28701;BME280;15877;52.344;16.790;2024-02-15T04:34:25;100938.95;;;10.43;96.15
28701;BME280;15877;52.344;16.790;2024-02-15T04:36:58;100941.73;;;10.43;96.23
28701;BME280;15877;52.344;16.790;2024-02-15T04:39:30;100944.35;;;10.45;96.19
28701;BME280;15877;52.344;16.790;2024-02-15T04:42:03;100942.98;;;10.45;96.07
28701;BME280;15877;52.344;16.790;2024-02-15T04:44:37;100943.81;;;10.43;96.16
28701;BME280;15877;52.344;16.790;2024-02-15T04:47:10;100947.10;;;10.47;95.97
28701;BME280;15877;52.344;16.790;2024-02-15T04:49:43;100948.18;;;10.49;95.70
28701;BME280;15877;52.344;16.790;2024-02-15T04:52:16;100948.54;;;10.47;95.94
28701;BME280;15877;52.344;16.790;2024-02-15T04:54:49;100944.85;;;10.44;96.13
28701;BME280;15877;52.344;16.790;2024-02-15T04:57:21;100949.27;;;10.45;96.25
28701;BME280;15877;52.344;16.790;2024-02-15T04:59:53;100948.42;;;10.48;95.97
28701;BME280;15877;52.344;16.790;2024-02-15T05:02:26;100945.88;;;10.49;95.87
28701;BME280;15877;52.344;16.790;2024-02-15T05:04:58;100947.60;;;10.48;96.02
28701;BME280;15877;52.344;16.790;2024-02-15T05:07:30;100946.05;;;10.44;96.42
28701;BME280;15877;52.344;16.790;2024-02-15T05:10:02;100947.44;;;10.40;96.98
28701;BME280;15877;52.344;16.790;2024-02-15T05:12:38;100949.95;;;10.47;96.60
28701;BME280;15877;52.344;16.790;2024-02-15T05:15:10;100949.43;;;10.48;96.44
28701;BME280;15877;52.344;16.790;2024-02-15T05:17:43;100948.10;;;10.49;96.30
28701;BME280;15877;52.344;16.790;2024-02-15T05:20:17;100948.87;;;10.48;96.18
28701;BME280;15877;52.344;16.790;2024-02-15T05:22:51;100950.29;;;10.50;96.34
28701;BME280;15877;52.344;16.790;2024-02-15T05:25:24;100946.70;;;10.53;95.95
28701;BME280;15877;52.344;16.790;2024-02-15T05:27:57;100948.69;;;10.52;95.96
28701;BME280;15877;52.344;16.790;2024-02-15T05:30:30;100945.30;;;10.53;96.04
28701;BME280;15877;52.344;16.790;2024-02-15T05:33:03;100946.76;;;10.49;96.05
28701;BME280;15877;52.344;16.790;2024-02-15T05:35:36;100945.98;;;10.49;96.25
28701;BME280;15877;52.344;16.790;2024-02-15T05:38:11;100947.95;;;10.51;96.28
28701;BME280;15877;52.344;16.790;2024-02-15T05:40:46;100951.02;;;10.51;96.35
28701;BME280;15877;52.344;16.790;2024-02-15T05:43:20;100949.31;;;10.52;96.23
28701;BME280;15877;52.344;16.790;2024-02-15T05:45:52;100949.98;;;10.51;96.34
28701;BME280;15877;52.344;16.790;2024-02-15T05:48:24;100952.23;;;10.51;96.46
28701;BME280;15877;52.344;16.790;2024-02-15T05:50:57;100952.15;;;10.51;96.44
28701;BME280;15877;52.344;16.790;2024-02-15T05:53:31;100954.17;;;10.52;96.47
28701;BME280;15877;52.344;16.790;2024-02-15T05:56:08;100955.48;;;10.54;96.31
28701;BME280;15877;52.344;16.790;2024-02-15T05:58:41;100951.37;;;10.55;96.28
28701;BME280;15877;52.344;16.790;2024-02-15T06:01:15;100949.73;;;10.55;96.41
28701;BME280;15877;52.344;16.790;2024-02-15T06:03:47;100951.09;;;10.56;96.16
28701;BME280;15877;52.344;16.790;2024-02-15T06:06:20;100952.76;;;10.56;96.49
28701;BME280;15877;52.344;16.790;2024-02-15T06:08:52;100957.75;;;10.58;96.23
28701;BME280;15877;52.344;16.790;2024-02-15T06:11:29;100956.09;;;10.58;96.16
28701;BME280;15877;52.344;16.790;2024-02-15T06:14:02;100956.94;;;10.57;96.41
28701;BME280;15877;52.344;16.790;2024-02-15T06:16:40;100959.15;;;10.57;96.54
28701;BME280;15877;52.344;16.790;2024-02-15T06:19:13;100962.90;;;10.58;96.60
28701;BME280;15877;52.344;16.790;2024-02-15T06:21:46;100947.95;;;10.49;96.71
28701;BME280;15877;52.344;16.790;2024-02-15T06:24:19;100942.54;;;10.43;96.84
28701;BME280;15877;52.344;16.790;2024-02-15T06:26:51;100968.83;;;10.59;96.61
28701;BME280;15877;52.344;16.790;2024-02-15T06:29:30;100970.83;;;10.59;96.60
28701;BME280;15877;52.344;16.790;2024-02-15T06:32:24;100972.54;;;10.61;96.70
28701;BME280;15877;52.344;16.790;2024-02-15T06:35:16;100975.59;;;10.62;96.63
28701;BME280;15877;52.344;16.790;2024-02-15T06:38:06;100979.33;;;10.62;96.69
28701;BME280;15877;52.344;16.790;2024-02-15T06:40:54;100974.74;;;10.63;96.63
28701;BME280;15877;52.344;16.790;2024-02-15T06:43:31;100967.22;;;10.56;96.78
28701;BME280;15877;52.344;16.790;2024-02-15T06:46:08;100977.91;;;10.66;96.66
28701;BME280;15877;52.344;16.790;2024-02-15T06:48:46;100979.46;;;10.65;96.87
28701;BME280;15877;52.344;16.790;2024-02-15T06:51:19;100981.63;;;10.65;97.03
28701;BME280;15877;52.344;16.790;2024-02-15T06:53:53;100979.64;;;10.68;97.18
28701;BME280;15877;52.344;16.790;2024-02-15T06:56:27;100977.04;;;10.69;97.29
28701;BME280;15877;52.344;16.790;2024-02-15T06:58:59;100977.90;;;10.70;97.54
28701;BME280;15877;52.344;16.790;2024-02-15T07:01:32;100956.30;;;10.57;97.60
28701;BME280;15877;52.344;16.790;2024-02-15T07:04:05;100980.10;;;10.75;97.58
28701;BME280;15877;52.344;16.790;2024-02-15T07:06:37;100983.11;;;10.77;97.40
28701;BME280;15877;52.344;16.790;2024-02-15T07:09:10;100985.71;;;10.77;97.91
28701;BME280;15877;52.344;16.790;2024-02-15T07:11:43;100987.12;;;10.79;98.39
28701;BME280;15877;52.344;16.790;2024-02-15T07:14:21;100986.59;;;10.82;98.65
28701;BME280;15877;52.344;16.790;2024-02-15T07:16:53;100987.15;;;10.82;99.14
28701;BME280;15877;52.344;16.790;2024-02-15T07:19:28;100986.36;;;10.86;99.25
28701;BME280;15877;52.344;16.790;2024-02-15T07:22:04;100988.03;;;10.91;98.94
28701;BME280;15877;52.344;16.790;2024-02-15T07:24:38;100991.74;;;11.01;98.12
28701;BME280;15877;52.344;16.790;2024-02-15T07:27:10;100993.02;;;11.01;99.06
28701;BME280;15877;52.344;16.790;2024-02-15T07:29:43;100995.15;;;11.00;99.84
28701;BME280;15877;52.344;16.790;2024-02-15T07:32:15;100994.30;;;10.98;99.92
28701;BME280;15877;52.344;16.790;2024-02-15T07:34:47;100998.60;;;11.01;99.64
28701;BME280;15877;52.344;16.790;2024-02-15T07:37:20;100999.20;;;11.06;98.99
28701;BME280;15877;52.344;16.790;2024-02-15T07:39:57;101000.34;;;11.07;98.48
28701;BME280;15877;52.344;16.790;2024-02-15T07:42:30;101004.32;;;11.10;98.33
28701;BME280;15877;52.344;16.790;2024-02-15T07:45:02;101007.92;;;11.13;98.12
28701;BME280;15877;52.344;16.790;2024-02-15T07:47:37;101008.23;;;11.14;98.41
28701;BME280;15877;52.344;16.790;2024-02-15T07:50:10;101006.83;;;11.17;97.74
28701;BME280;15877;52.344;16.790;2024-02-15T07:52:45;101008.50;;;11.11;97.93
28701;BME280;15877;52.344;16.790;2024-02-15T07:55:17;101002.98;;;11.10;98.25
28701;BME280;15877;52.344;16.790;2024-02-15T07:57:50;101006.30;;;11.18;98.05
28701;BME280;15877;52.344;16.790;2024-02-15T08:00:22;101008.51;;;11.15;98.19
28701;BME280;15877;52.344;16.790;2024-02-15T08:02:55;101002.84;;;11.11;97.74
28701;BME280;15877;52.344;16.790;2024-02-15T08:05:28;100993.77;;;11.05;98.19
28701;BME280;15877;52.344;16.790;2024-02-15T08:08:01;101006.99;;;11.14;98.42
28701;BME280;15877;52.344;16.790;2024-02-15T08:10:34;101005.18;;;11.18;98.47
28701;BME280;15877;52.344;16.790;2024-02-15T08:13:07;101008.72;;;11.16;98.59
28701;BME280;15877;52.344;16.790;2024-02-15T08:15:39;101006.16;;;11.24;98.44
28701;BME280;15877;52.344;16.790;2024-02-15T08:18:12;100997.30;;;11.17;98.66
28701;BME280;15877;52.344;16.790;2024-02-15T08:20:46;101003.52;;;11.23;99.23
28701;BME280;15877;52.344;16.790;2024-02-15T08:23:18;101003.55;;;11.25;99.30
28701;BME280;15877;52.344;16.790;2024-02-15T08:25:50;101003.39;;;11.30;98.80
28701;BME280;15877;52.344;16.790;2024-02-15T08:28:23;101006.38;;;11.26;98.60
28701;BME280;15877;52.344;16.790;2024-02-15T08:30:55;101005.16;;;11.28;99.01
28701;BME280;15877;52.344;16.790;2024-02-15T08:33:28;101001.77;;;11.35;99.09
28701;BME280;15877;52.344;16.790;2024-02-15T08:36:01;101001.29;;;11.41;98.79
28701;BME280;15877;52.344;16.790;2024-02-15T08:38:33;101004.61;;;11.40;98.55
28701;BME280;15877;52.344;16.790;2024-02-15T08:41:08;101005.20;;;11.44;98.52
28701;BME280;15877;52.344;16.790;2024-02-15T08:43:42;101010.67;;;11.43;98.96
28701;BME280;15877;52.344;16.790;2024-02-15T08:46:15;101012.02;;;11.48;99.25
28701;BME280;15877;52.344;16.790;2024-02-15T08:48:47;101010.83;;;11.49;98.84
28701;BME280;15877;52.344;16.790;2024-02-15T08:51:19;101012.88;;;11.57;98.04
28701;BME280;15877;52.344;16.790;2024-02-15T08:53:55;101011.61;;;11.54;98.17
28701;BME280;15877;52.344;16.790;2024-02-15T08:56:28;101018.38;;;11.62;97.72
28701;BME280;15877;52.344;16.790;2024-02-15T08:59:00;101018.08;;;11.65;97.14
28701;BME280;15877;52.344;16.790;2024-02-15T09:01:34;101015.39;;;11.66;97.61
28701;BME280;15877;52.344;16.790;2024-02-15T09:04:07;101012.67;;;11.75;97.67
28701;BME280;15877;52.344;16.790;2024-02-15T09:06:39;101015.58;;;11.77;97.66
28701;BME280;15877;52.344;16.790;2024-02-15T09:09:12;101014.35;;;11.75;99.05
28701;BME280;15877;52.344;16.790;2024-02-15T09:11:44;101012.36;;;11.71;99.88
28701;BME280;15877;52.344;16.790;2024-02-15T09:14:16;101012.51;;;11.80;99.12
28701;BME280;15877;52.344;16.790;2024-02-15T09:16:49;101006.69;;;11.83;98.51
28701;BME280;15877;52.344;16.790;2024-02-15T09:19:21;101012.60;;;11.81;99.72
28701;BME280;15877;52.344;16.790;2024-02-15T09:21:55;101008.87;;;11.81;99.68
28701;BME280;15877;52.344;16.790;2024-02-15T09:24:27;101010.21;;;11.87;99.06
28701;BME280;15877;52.344;16.790;2024-02-15T09:27:00;101013.20;;;11.76;99.66
28701;BME280;15877;52.344;16.790;2024-02-15T09:29:33;101015.86;;;11.75;100.00
28701;BME280;15877;52.344;16.790;2024-02-15T09:32:05;101017.45;;;11.78;100.00
28701;BME280;15877;52.344;16.790;2024-02-15T09:34:37;101014.76;;;11.90;99.68
28701;BME280;15877;52.344;16.790;2024-02-15T09:37:11;101009.36;;;11.75;99.81
28701;BME280;15877;52.344;16.790;2024-02-15T09:39:44;101019.67;;;11.74;100.00
28701;BME280;15877;52.344;16.790;2024-02-15T09:42:16;101021.86;;;11.85;100.00
28701;BME280;15877;52.344;16.790;2024-02-15T09:44:49;101022.95;;;11.91;100.00
28701;BME280;15877;52.344;16.790;2024-02-15T09:47:24;101022.02;;;11.97;100.00
28701;BME280;15877;52.344;16.790;2024-02-15T09:49:57;101023.76;;;12.00;100.00
28701;BME280;15877;52.344;16.790;2024-02-15T09:52:32;101027.40;;;12.02;100.00
28701;BME280;15877;52.344;16.790;2024-02-15T09:55:08;101024.48;;;12.00;100.00
28701;BME280;15877;52.344;16.790;2024-02-15T09:57:44;101024.05;;;12.08;100.00
28701;BME280;15877;52.344;16.790;2024-02-15T10:00:20;101028.29;;;12.03;100.00
28701;BME280;15877;52.344;16.790;2024-02-15T10:02:54;101023.63;;;12.04;100.00
28701;BME280;15877;52.344;16.790;2024-02-15T10:05:27;101017.45;;;12.14;100.00
28701;BME280;15877;52.344;16.790;2024-02-15T10:08:00;101019.31;;;12.16;100.00
28701;BME280;15877;52.344;16.790;2024-02-15T10:10:32;101016.36;;;12.25;100.00
28701;BME280;15877;52.344;16.790;2024-02-15T10:13:08;101002.98;;;12.19;100.00
28701;BME280;15877;52.344;16.790;2024-02-15T10:15:44;101017.65;;;12.33;99.95
28701;BME280;15877;52.344;16.790;2024-02-15T10:18:21;101017.89;;;12.43;99.76
28701;BME280;15877;52.344;16.790;2024-02-15T10:20:59;101011.80;;;12.48;99.93
28701;BME280;15877;52.344;16.790;2024-02-15T10:23:32;101011.30;;;12.47;100.00
28701;BME280;15877;52.344;16.790;2024-02-15T10:26:20;101009.00;;;12.44;99.80
28701;BME280;15877;52.344;16.790;2024-02-15T10:29:07;101012.27;;;12.51;99.11
28701;BME280;15877;52.344;16.790;2024-02-15T10:31:53;101010.91;;;12.51;99.33
28701;BME280;15877;52.344;16.790;2024-02-15T10:34:26;101016.52;;;12.48;99.97
28701;BME280;15877;52.344;16.790;2024-02-15T10:37:13;101021.35;;;12.48;100.00
28701;BME280;15877;52.344;16.790;2024-02-15T10:40:05;101017.13;;;12.41;100.00
28701;BME280;15877;52.344;16.790;2024-02-15T10:42:39;101020.35;;;12.36;100.00
28701;BME280;15877;52.344;16.790;2024-02-15T10:45:13;101020.08;;;12.24;100.00
28701;BME280;15877;52.344;16.790;2024-02-15T10:47:49;101010.69;;;12.45;100.00
28701;BME280;15877;52.344;16.790;2024-02-15T10:50:27;101011.52;;;12.46;100.00
28701;BME280;15877;52.344;16.790;2024-02-15T10:52:59;100998.77;;;12.43;100.00
28701;BME280;15877;52.344;16.790;2024-02-15T10:55:40;101005.99;;;12.52;100.00
28701;BME280;15877;52.344;16.790;2024-02-15T10:58:19;101008.69;;;12.48;100.00
28701;BME280;15877;52.344;16.790;2024-02-15T11:00:52;101013.02;;;12.52;100.00
28701;BME280;15877;52.344;16.790;2024-02-15T11:03:30;101007.97;;;12.55;100.00
28701;BME280;15877;52.344;16.790;2024-02-15T11:06:06;101002.17;;;12.51;100.00
28701;BME280;15877;52.344;16.790;2024-02-15T11:08:40;100998.95;;;12.54;100.00
28701;BME280;15877;52.344;16.790;2024-02-15T11:11:16;101003.45;;;12.52;100.00
28701;BME280;15877;52.344;16.790;2024-02-15T11:13:49;101001.63;;;12.46;100.00
28701;BME280;15877;52.344;16.790;2024-02-15T11:16:42;100987.42;;;12.37;100.00
28701;BME280;15877;52.344;16.790;2024-02-15T11:19:46;100985.88;;;12.46;100.00
28701;BME280;15877;52.344;16.790;2024-02-15T11:22:19;100985.30;;;12.48;100.00
28701;BME280;15877;52.344;16.790;2024-02-15T11:24:53;100990.69;;;12.51;100.00
28701;BME280;15877;52.344;16.790;2024-02-15T11:27:28;100990.20;;;12.43;100.00
28701;BME280;15877;52.344;16.790;2024-02-15T11:30:01;100989.48;;;12.50;100.00
28701;BME280;15877;52.344;16.790;2024-02-15T11:32:43;100983.45;;;12.52;100.00
28701;BME280;15877;52.344;16.790;2024-02-15T11:35:19;100983.27;;;12.51;100.00
28701;BME280;15877;52.344;16.790;2024-02-15T11:37:58;100981.79;;;12.63;100.00
28701;BME280;15877;52.344;16.790;2024-02-15T11:43:54;100978.55;;;12.74;100.00
28701;BME280;15877;52.344;16.790;2024-02-15T11:46:29;100971.39;;;12.75;100.00
28701;BME280;15877;52.344;16.790;2024-02-15T11:49:04;100972.77;;;12.82;100.00
28701;BME280;15877;52.344;16.790;2024-02-15T11:51:38;100973.48;;;12.86;100.00
28701;BME280;15877;52.344;16.790;2024-02-15T11:54:14;100972.85;;;12.91;100.00
28701;BME280;15877;52.344;16.790;2024-02-15T11:56:53;100972.05;;;12.87;100.00
28701;BME280;15877;52.344;16.790;2024-02-15T11:59:44;100972.27;;;12.79;100.00
28701;BME280;15877;52.344;16.790;2024-02-15T12:02:45;100971.14;;;12.71;100.00
28701;BME280;15877;52.344;16.790;2024-02-15T12:05:36;100979.37;;;12.75;100.00
28701;BME280;15877;52.344;16.790;2024-02-15T12:08:26;100982.65;;;12.72;100.00
28701;BME280;15877;52.344;16.790;2024-02-15T12:11:16;100974.98;;;12.75;100.00
28701;BME280;15877;52.344;16.790;2024-02-15T12:14:05;100977.42;;;12.77;100.00
28701;BME280;15877;52.344;16.790;2024-02-15T12:17:06;100980.12;;;12.80;100.00
28701;BME280;15877;52.344;16.790;2024-02-15T12:19:57;100976.44;;;12.73;100.00
28701;BME280;15877;52.344;16.790;2024-02-15T12:22:32;100972.48;;;12.74;100.00
28701;BME280;15877;52.344;16.790;2024-02-15T12:25:05;100968.44;;;12.78;100.00
28701;BME280;15877;52.344;16.790;2024-02-15T12:27:42;100975.61;;;12.86;100.00
28701;BME280;15877;52.344;16.790;2024-02-15T12:30:18;100976.33;;;12.82;100.00
28701;BME280;15877;52.344;16.790;2024-02-15T12:32:51;100972.52;;;12.76;100.00
28701;BME280;15877;52.344;16.790;2024-02-15T12:35:24;100968.64;;;12.76;100.00
28701;BME280;15877;52.344;16.790;2024-02-15T12:38:04;100967.50;;;12.72;100.00
28701;BME280;15877;52.344;16.790;2024-02-15T12:40:38;100964.54;;;12.64;100.00
28701;BME280;15877;52.344;16.790;2024-02-15T12:43:17;100970.59;;;12.75;100.00
28701;BME280;15877;52.344;16.790;2024-02-15T12:45:50;100955.48;;;12.76;100.00
28701;BME280;15877;52.344;16.790;2024-02-15T12:48:22;100968.09;;;12.81;100.00
28701;BME280;15877;52.344;16.790;2024-02-15T12:50:55;100969.03;;;12.79;100.00
28701;BME280;15877;52.344;16.790;2024-02-15T12:53:27;100966.01;;;12.83;100.00
28701;BME280;15877;52.344;16.790;2024-02-15T12:55:59;100955.92;;;12.81;100.00
28701;BME280;15877;52.344;16.790;2024-02-15T12:58:32;100964.98;;;12.88;100.00
28701;BME280;15877;52.344;16.790;2024-02-15T13:01:04;100966.79;;;12.83;100.00
28701;BME280;15877;52.344;16.790;2024-02-15T13:03:36;100961.85;;;12.72;100.00
28701;BME280;15877;52.344;16.790;2024-02-15T13:06:09;100954.46;;;12.73;100.00
28701;BME280;15877;52.344;16.790;2024-02-15T13:08:41;100957.48;;;12.68;100.00
28701;BME280;15877;52.344;16.790;2024-02-15T13:11:15;100926.87;;;12.46;100.00
28701;BME280;15877;52.344;16.790;2024-02-15T13:13:48;100955.34;;;12.69;100.00
28701;BME280;15877;52.344;16.790;2024-02-15T13:16:20;100953.76;;;12.77;100.00
28701;BME280;15877;52.344;16.790;2024-02-15T13:18:54;100953.43;;;12.70;100.00